Terminal Aerodrome Forecast
Issued by NWS Shreveport, LA

Home | Current Version | Previous Version | Text Only | Print | Product List | Glossary On
Versions: 1 2 3 4 5 6 7 8 9 10 11 12 13 14 15 16 17 18 19 20
000
FTUS44 KSHV 020924 AAA
TAFMLU
TAF AMD
KMLU 020924Z 0209/0306 22008KT P6SM BKN120 BKN250
     FM021400 22010KT P6SM FEW012 BKN130 OVC250
     FM021600 23013G20KT P6SM SCT130 BKN250
     FM021900 23013G20KT P6SM SCT040 BKN250
     FM030000 22008KT P6SM BKN250=

USA.gov is the U.S. government's official web portal to all federal, state and local government web resources and services.